Weather observations for the past three days for
Pinedale, Ralph Wenz Field Airport
Metric (Imperial)
Date Time (mdt) Wind (kph) Vis. (km) Weather Sky Cond. Temperature (ºC) Relative Humidity Wind Chill (°C) Heat Index (°C) Pressure Precipitation (cm)
Air Dwpt 6 hour altimeter (cm) sea level (mb) 1 hr 3 hr 6 hr
Max. Min.
09 16:15 NW 26 G 46 16.09 Partly Cloudy SCT095 13 -9 21% 76.53 0.0
09 15:55 NW 44 G 54 16.09 Partly Cloudy and Windy SCT085 SCT110 14 -8 21% 76.53 0.0
09 15:35 NW 30 G 44 16.09 Mostly Cloudy BKN085 BKN110 13 -8 23% 76.53 0.0
09 15:15 W 30 G 46 16.09 Mostly Cloudy BKN095 BKN120 15 -7 21% 76.53 0.0
09 14:55 NW 37 G 46 16.09 Mostly Cloudy and Breezy BKN095 BKN120 13 -7 24% 76.53 0.0
09 14:35 NW 33 G 50 16.09 Overcast and Breezy OVC095 15 -8 20% 76.5 0.0
09 14:15 W 26 G 48 16.09 Mostly Cloudy BKN095 15 -11 16% 76.5 0.0
09 13:55 W 31 G 50 16.09 Mostly Cloudy BKN095 15 -11 16% 76.5 0.0
09 13:35 W 26 G 43 16.09 Mostly Cloudy BKN095 14 -9 20% 76.53 0.0
09 13:15 NW 24 G 37 16.09 Mostly Cloudy BKN095 14 -8 21% 76.53 0.0
09 12:55 W 33 G 41 16.09 Mostly Cloudy and Breezy BKN085 BKN100 15 -9 18% 76.53 0.0
09 12:35 W 20 G 30 16.09 Mostly Cloudy BKN085 13 -8 23% 76.53 0.0
09 12:15 W 20 G 37 16.09 Partly Cloudy SCT085 14 -8 21% 76.53 0.0
09 11:55 NW 30 G 41 16.09 Fair CLR 13 -8 23% 76.53 0.0
09 11:35 W 22 G 41 16.09 Fair CLR 13 -10 19% 76.53 0.0
09 11:15 W 24 G 41 16.09 Fair CLR 13 -11 18% 76.53 0.0
09 10:55 NW 28 G 37 16.09 Fair CLR 13 -10 19% 76.53 0.0
09 10:35 NW 28 G 43 16.09 Fair CLR 13 -11 18% 76.53 0.0
09 10:15 NW 24 G 37 16.09 Fair CLR 12 -10 21% 76.5 0.0
09 09:55 W 20 G 30 16.09 Fair CLR 12 -6 28% 76.5 0.0
09 09:35 NW 19 16.09 Fair CLR 11 -5 32% 76.5 0.0
09 09:15 NW 20 G 31 16.09 Fair CLR 11 -6 30% 76.5 0.0
09 08:55 NW 22 16.09 Fair CLR 10 -5 35% 7 76.5 0.0
09 08:35 NW 15 16.09 Fair CLR 8 -5 40% 6 76.5 0.0
09 08:15 NW 11 16.09 Fair CLR 6 -5 46% 4 76.53 0.0
09 07:55 NW 15 16.09 Fair CLR 5 -6 45% 2 76.53 0.0
09 07:35 NW 11 16.09 Fair CLR 3 -5 56% 0 76.48 0.0
09 07:15 NW 11 16.09 Fair CLR 1 -5 65% -2 76.48 0.0
09 06:55 NW 7 16.09 Fair CLR -1 -6 69% -3 76.45 0.0
09 06:35 NW 7 16.09 Fair CLR -1 -6 69% -3 76.43 0.0
09 06:15 W 15 16.09 Fair CLR -1 -6 69% -5 76.43 0.0
09 05:55 NW 11 16.09 Fair CLR -1 -6 69% -4 76.4 0.0
09 05:35 NW 6 16.09 Fair CLR 0 -5 69% 76.4 0.0
09 05:15 N 11 16.09 Fair CLR -1 -4 80% -4 76.38 0.0
09 04:55 W 9 16.09 Fair CLR -1 -3 86% -4 76.38 0.0
09 04:35 W 9 16.09 Fair CLR 0 -3 80% -3 76.38 0.0
09 04:15 W 9 16.09 Fair CLR 0 -3 80% -3 76.38 0.0
09 03:55 NW 7 16.09 Fair CLR 0 -2 87% -2 76.35 0.0
09 03:35 Calm 16.09 Fair CLR 1 -2 81% 76.35 0.0
09 03:15 Calm 16.09 Fair CLR 2 -3 70% 76.35 0.0
09 02:55 Calm 16.09 Fair CLR 3 -1 75% 76.33 0.0
09 02:35 N 7 16.09 Fair CLR 2 -1 81% 0 76.35 0.0
09 02:15 W 6 16.09 Fair CLR 2 -1 81% 76.35 0.0
09 01:55 Calm 16.09 Fair CLR 3 -1 75% 76.35 0.0
09 01:35 Calm 16.09 Fair CLR 3 -1 75% 76.38 0.0
09 01:15 N 7 16.09 Fair CLR 3 -1 75% 1 76.38 0.0
09 00:55 NW 7 16.09 Fair CLR 4 -1 70% 2 76.4 0.0
09 00:35 NW 6 16.09 Fair CLR 5 -1 66% 76.38 0.0
09 00:15 NW 6 16.09 Fair CLR 6 -1 61% 76.38 0.0
08 23:55 W 6 16.09 Fair CLR 7 -1 57% 76.38 0.0
08 23:35 W 7 16.09 Fair CLR 7 -1 57% 6 76.38 0.0
08 23:15 W 7 16.09 Fair CLR 6 -1 61% 5 76.38 0.0
08 22:55 SW 6 16.09 Fair CLR 7 -1 57% 76.4 0.0
08 22:35 NW 11 16.09 Fair CLR 7 -2 53% 5 76.4 0.0
08 22:15 NW 11 16.09 Fair CLR 8 -2 50% 6 76.38 0.0
08 21:55 W 13 16.09 Fair CLR 10 -3 40% 8 76.38 0.0
08 21:35 NW 13 16.09 Fair CLR 11 -4 35% 76.35 0.0
08 21:15 NW 15 16.09 Fair CLR 11 -3 38% 76.35 0.0
08 20:55 NW 13 16.09 Fair CLR 12 -4 33% 76.33 0.0
08 20:35 NW 20 16.09 Fair CLR 13 -4 31% 76.33 0.0
08 20:15 W 22 G 30 16.09 Partly Cloudy SCT085 13 -3 33% 76.3 0.0
08 19:55 W 22 G 31 16.09 Partly Cloudy SCT085 15 -2 31% 76.28 0.0
08 19:35 W 22 G 33 16.09 Mostly Cloudy BKN085 15 -3 29% 76.28 0.0
08 19:15 W 20 16.09 Partly Cloudy SCT085 16 -4 25% 76.28 0.0
08 18:55 W 24 G 35 16.09 Partly Cloudy SCT085 16 -4 25% 76.25 0.0
08 18:35 NW 28 G 39 16.09 Mostly Cloudy BKN085 16 -3 27% 76.28 0.0
08 18:15 W 24 G 31 16.09 Mostly Cloudy BKN095 16 -4 25% 76.25 0.0
08 17:55 W 28 G 35 16.09 Mostly Cloudy BKN095 16 -4 25% 76.25 0.0
08 17:35 W 26 G 37 16.09 Mostly Cloudy BKN085 17 -4 24% 76.25 0.0
08 16:55 W 24 G 35 16.09 Partly Cloudy SCT085 18 -5 21% 76.25 0.0
08 16:35 NW 20 G 35 16.09 Fair CLR 17 -5 22% 76.28 0.0
08 16:15 W 22 G 37 16.09 Fair CLR 18 -6 19% 76.28 0.0
08 15:55 NW 22 G 41 16.09 Fair CLR 18 -7 18% 76.28 0.0
08 15:35 W 26 G 33 16.09 Partly Cloudy SCT085 18 -7 18% 76.28 0.0
08 15:15 NW 33 G 48 16.09 Partly Cloudy and Breezy SCT085 17 -5 22% 76.28 0.0
08 14:55 W 22 G 35 16.09 Partly Cloudy SCT085 17 -5 22% 76.33 0.0
08 14:35 W 11 G 37 16.09 Partly Cloudy SCT075 17 -5 22% 76.33 0.0
08 14:15 W 17 G 35 16.09 Partly Cloudy SCT075 17 -3 25% 76.33 0.0
08 13:35 NW 20 G 30 16.09 Partly Cloudy SCT075 17 -3 25% 76.38 0.0
08 13:15 N 13 16.09 Partly Cloudy SCT075 16 -3 27% 76.4 0.0
08 12:55 W 7 G 35 16.09 Mostly Cloudy BKN070 15 -2 31% 76.43 0.0
08 12:35 NW 6 16.09 Partly Cloudy SCT070 15 -2 31% 76.43 0.0
08 12:15 NW 7 16.09 Fair CLR 13 -1 38% 76.45 0.0
08 11:35 NW 6 16.09 Fair CLR 12 0 44% 76.48 0.0
08 11:15 Calm 16.09 Fair CLR 12 0 44% 76.5 0.0
08 10:55 Calm 16.09 Fair CLR 11 0 47% 76.53 0.0
08 10:35 Calm 16.09 Fair CLR 11 0 47% 76.53 0.0
08 10:15 SW 6 16.09 Fair CLR 10 0 50% 76.53 0.0
08 09:55 S 6 16.09 Fair CLR 9 1 58% 76.53 0.0
08 09:35 Calm 16.09 Fair CLR 9 1 58% 76.53 0.0
08 09:15 Calm 16.09 Fair CLR 8 1 62% 76.56 0.0
08 08:55 E 6 16.09 Fair CLR 8 1 62% 76.53 0.0
08 08:35 Calm 16.09 Fair CLR 6 1 71% 76.53 0.0
08 08:15 Calm 16.09 Fair CLR 5 1 76% 76.56 0.0
08 07:35 Calm 16.09 Fair CLR 2 0 87% 76.53 0.0
08 07:15 Calm 16.09 Fair CLR 1 -1 87% 76.5 0.0
08 06:55 Calm 16.09 Fair CLR 0 -1 93% 76.48 0.0
08 06:35 NW 6 16.09 Fair CLR 0 -1 93% 76.48 0.0
08 06:15 W 6 16.09 Fair CLR -1 -2 93% 76.48 0.0
08 05:55 Calm 16.09 Fair CLR 0 -2 87% 76.48 0.0
08 05:35 Calm 16.09 Fair CLR 0 -1 93% 76.45 0.0
08 05:15 Calm 16.09 Mostly Cloudy BKN085 0 -1 93% 76.43 0.0
08 04:55 W 6 16.09 Overcast OVC085 1 -1 87% 76.43 0.0
08 04:35 NW 7 16.09 Overcast OVC085 1 -1 87% -1 76.43 0.0
08 04:15 Calm 16.09 Overcast OVC095 1 -1 87% 76.4 0.0
08 03:55 W 11 16.09 Overcast OVC095 1 -1 87% -2 76.4 0.0
08 03:35 NW 7 16.09 Overcast OVC095 2 -1 81% 0 76.4 0.0
08 03:15 W 9 16.09 Overcast OVC095 1 -1 87% -2 76.38 0.0
08 02:55 W 11 16.09 Overcast OVC095 1 -1 87% -2 76.38 0.0
08 02:35 W 7 16.09 Overcast OVC095 1 -1 87% -1 76.38 0.0
08 02:15 Calm 16.09 Overcast OVC095 2 0 87% 76.38 0.0
08 01:55 W 6 16.09 Overcast OVC095 2 0 87% 76.38 0.0
08 01:35 NW 6 16.09 Overcast OVC095 2 0 87% 76.38 0.0
08 01:15 NW 7 16.09 Overcast OVC085 3 0 81% 1 76.4 0.0
08 00:55 W 9 16.09 Overcast OVC085 2 -1 81% -0 76.4 0.0
08 00:35 W 7 16.09 Mostly Cloudy BKN085 2 0 87% 0 76.4 0.0
08 00:15 W 9 16.09 Partly Cloudy SCT095 2 -1 81% -0 76.38 0.0
07 23:55 Calm 16.09 Partly Cloudy SCT095 2 0 87% 76.38 0.0
07 23:35 Calm 16.09 Partly Cloudy SCT085 3 0 81% 76.38 0.0
07 23:15 NW 6 16.09 Mostly Cloudy BKN085 4 0 75% 76.38 0.0
07 22:55 NW 7 16.09 Partly Cloudy SCT085 3 0 81% 1 76.38 0.0
07 22:35 W 7 16.09 Fair CLR 3 0 81% 1 76.38 0.0
07 22:15 Calm 16.09 Partly Cloudy SCT110 4 0 75% 76.35 0.0
07 21:55 N 9 16.09 Partly Cloudy SCT100 6 0 66% 4 76.35 0.0
07 21:35 W 7 16.09 Fair CLR 6 0 66% 5 76.33 0.0
07 21:15 W 9 16.09 Fair CLR 7 0 61% 5 76.33 0.0
07 20:55 W 13 16.09 Fair CLR 7 0 61% 5 76.3 0.0
07 20:35 NW 9 16.09 Partly Cloudy SCT085 9 0 54% 8 76.28 0.0
07 20:15 NW 11 16.09 Partly Cloudy SCT080 SCT085 11 -1 44% 76.28 0.0
07 19:55 NW 20 16.09 Partly Cloudy SCT080 SCT100 12 -2 38% 76.25 0.0
07 19:35 W 35 G 44 16.09 Overcast and Breezy SCT075 OVC090 14 -5 27% 76.23 0.0
07 19:15 W 24 G 39 16.09 Mostly Cloudy BKN090 15 -6 23% 76.2 0.0
07 18:55 W 35 G 44 16.09 Partly Cloudy and Breezy SCT090 15 -6 23% 76.2 0.0
07 18:35 W 26 G 41 16.09 Partly Cloudy SCT090 16 -5 23% 76.2 0.0
07 18:15 W 28 G 37 16.09 Mostly Cloudy BKN090 16 -5 23% 76.2 0.0
07 17:55 N 13 16.09 Mostly Cloudy BKN090 14 -1 36% 76.23 0.0
07 17:35 N 19 16.09 Mostly Cloudy BKN090 14 -1 36% 76.23 0.0
07 17:15 N 19 G 26 16.09 Mostly Cloudy SCT070 BKN080 BKN100 13 -1 38% 76.23 0.0
07 16:55 W 22 G 28 16.09 Overcast BKN070 OVC090 14 -2 33% 76.23 0.0
07 16:35 NW 28 G 39 16.09 Overcast SCT070 BKN080 OVC090 15 -1 34% 76.23 0.0
07 16:15 NW 22 G 31 16.09 Overcast SCT050 OVC075 14 -3 31% 76.28 0.0
07 15:55 NW 39 G 48 16.09 Overcast and Breezy SCT070 OVC090 12 -2 38% 76.3 0.0
07 15:35 W 41 G 57 16.09 Mostly Cloudy and Breezy BKN080 BKN090 13 -2 36% 76.3 0.0
07 15:15 W 35 G 43 16.09 Partly Cloudy and Breezy SCT080 SCT090 SCT120 16 -5 23% 76.28 0.0
07 14:55 W 31 G 41 16.09 Partly Cloudy SCT070 SCT080 15 -5 25% 76.28 0.0
07 14:35 NW 11 16.09 Mostly Cloudy SCT043 SCT055 BKN070 13 -1 38% 76.28 0.0
07 14:15 NW 26 G 63 16.09 Light Rain SCT046 BKN065 OVC090 12 -1 41% 76.33 0.0
07 13:55 W 30 G 41 16.09 Overcast SCT065 SCT075 OVC095 15 -3 29% 76.3 0.0
07 13:35 W 20 G 30 16.09 Mostly Cloudy SCT070 BKN075 BKN095 14 -2 33% 76.3 0.0
07 13:15 W 20 G 46 16.09 Partly Cloudy SCT060 SCT095 15 -3 29% 76.33 0.0
07 12:55 W 26 G 35 16.09 Partly Cloudy SCT060 SCT080 SCT090 15 -1 34% 76.33 0.0
07 12:35 W 20 G 41 16.09 Partly Cloudy SCT060 SCT070 SCT090 15 -1 34% 76.33 0.0
07 12:15 W 26 G 39 16.09 Mostly Cloudy BKN060 BKN070 BKN090 13 -1 38% 76.35 0.0
07 11:55 Calm 16.09 Overcast SCT060 BKN070 OVC080 12 -2 38% 76.35 0.0
07 11:35 SW 17 16.09 Overcast SCT060 BKN070 OVC080 12 -1 41% 76.38 0.0
07 11:15 S 6 16.09 Overcast OVC070 11 -1 44% 76.4 0.0
07 10:55 S 7 16.09 Mostly Cloudy BKN065 BKN075 12 -1 41% 76.4 0.0
07 10:35 Calm 16.09 Partly Cloudy SCT070 11 -1 44% 76.43 0.0
07 10:15 Calm 16.09 Fair CLR 10 -1 47% 76.43 0.0
07 09:55 SW 6 16.09 Fair CLR 10 -1 47% 76.45 0.0
07 09:35 Calm 16.09 Fair CLR 9 -1 50% 76.48 0.0
07 09:15 Calm 16.09 Fair CLR 8 -1 53% 76.48 0.0
07 08:55 Calm 16.09 Fair CLR 7 -1 57% 76.48 0.0
07 08:35 Calm 16.09 Fair CLR 7 -1 57% 76.48 0.0
07 08:15 Calm 16.09 Fair CLR 6 0 66% 76.48 0.0
07 07:55 Calm 16.09 Fair CLR 5 0 70% 76.48 0.0
07 07:35 N 9 16.09 Fair CLR 3 -1 75% 1 76.45 0.0
07 07:15 Calm 16.09 Fair CLR 1 0 93% 76.43 0.0
07 06:55 W 6 16.09 Partly Cloudy SCT060 SCT070 0 -1 93% 76.43 0.0
07 06:35 W 6 16.09 Mostly Cloudy BKN060 0 -1 93% 76.43 0.0
07 06:15 W 9 16.09 Mostly Cloudy BKN060 0 -1 93% -3 76.43 0.0
07 05:55 NW 11 16.09 Overcast OVC060 0 0 100% -3 76.43 0.0
07 05:35 NW 7 16.09 Overcast BKN060 OVC070 0 0 100% -2 76.43 0.0
07 05:15 W 9 16.09 Overcast BKN060 OVC070 0 0 100% -3 76.43 0.0
07 04:55 W 7 16.09 Overcast OVC060 0 0 100% -2 76.43 0.0
07 04:35 Calm 16.09 Overcast OVC060 2 0 87% 76.43 0.0
07 04:15 NW 7 16.09 Overcast BKN060 OVC075 1 0 93% -1 76.43 0.0
07 03:55 W 6 16.09 Overcast OVC075 1 0 93% 76.43 0.0
07 03:35 Calm 16.09 Overcast BKN075 OVC085 2 0 87% 76.45 0.0
07 03:15 Calm 16.09 Overcast BKN085 OVC100 1 0 93% 76.45 0.0
07 02:55 Calm 16.09 Overcast BKN075 OVC100 2 -1 81% 76.45 0.0
07 02:35 Calm 16.09 Overcast OVC080 1 -1 87% 76.48 0.0
07 02:15 Calm 16.09 Overcast OVC080 1 0 93% 76.48 0.0
07 01:55 Calm 16.09 Overcast BKN080 OVC100 1 -1 87% 76.48 0.0
07 01:15 Calm 16.09 Partly Cloudy SCT070 SCT100 0 -1 93% 76.53 0.0
07 00:55 Calm 16.09 Partly Cloudy SCT070 1 -2 81% 76.5 0.0
07 00:35 Calm 16.09 Partly Cloudy SCT070 2 -1 81% 76.48 0.0
07 00:15 Calm 16.09 Mostly Cloudy BKN070 2 -1 81% 76.5 0.0
06 23:55 Calm 16.09 Fair CLR 1 -2 81% 76.5 0.0
06 23:30 W 6 16.09 Fair CLR 2 -2 75% 76.5 0.0
06 23:15 W 7 16.09 Partly Cloudy SCT090 3 -2 70% 1 76.5 0.0
06 22:55 SW 9 16.09 Fair CLR 3 -2 70% 1 76.53 0.0
06 22:35 NW 7 16.09 Partly Cloudy SCT080 4 -2 65% 2 76.5 0.0
06 22:15 W 11 16.09 Mostly Cloudy BKN070 5 -2 61% 3 76.5 0.0
06 21:55 NW 13 16.09 Mostly Cloudy BKN070 6 -2 57% 4 76.48 0.0
06 21:35 NW 13 16.09 Mostly Cloudy BKN080 6 -2 57% 4 76.48 0.0
06 21:15 W 15 16.09 Overcast OVC080 7 -3 49% 5 76.45 0.0
06 20:55 W 17 16.09 Mostly Cloudy BKN080 7 -3 49% 4 76.43 0.0
06 20:35 W 15 16.09 Fair CLR 7 -4 46% 5 76.43 0.0
06 20:15 NW 20 16.09 Fair CLR 8 -5 40% 5 76.38 0.0
06 19:55 NW 20 G 28 16.09 Fair CLR 10 -6 32% 8 76.38 0.0
06 19:35 NW 22 G 41 16.09 Partly Cloudy SCT090 11 -7 28% 76.38 0.0
06 19:15 NW 31 G 41 16.09 Fair CLR 11 -7 28% 76.38 0.0
06 18:55 NW 33 G 41 16.09 Fair and Breezy CLR 12 -8 24% 76.35 0.0
06 18:35 NW 31 G 43 16.09 Fair CLR 12 -8 24% 76.35 0.0
06 18:15 W 28 G 43 16.09 Fair CLR 12 -9 22% 76.35 0.0
06 17:55 NW 28 G 39 16.09 Fair CLR 12 -11 19% 76.35 0.0
06 17:35 NW 30 G 39 16.09 Fair CLR 12 -10 21% 76.35 0.0
06 17:15 NW 28 G 41 16.09 Fair CLR 12 -10 21% 76.33 0.0
06 16:55 W 22 G 31 16.09 Fair CLR 12 -9 22% 76.35 0.0
06 16:35 N 20 G 39 16.09 Fair CLR 12 -11 19% 76.35 0.0
Date Time (mdt) Wind (kph) Vis. (km) Weather Sky Cond. Air Dwpt Max. Min. Relative Humidity Wind Chill (°C) Heat Index (°C) altimeter (cm) sea level (mb) 1 hr 3 hr 6 hr
6 hour
Temperature (ºC) Pressure Precipitation (cm)